createdAt,value
2024-04-21T00:01:39.170Z,7.88
2024-04-21T00:04:06.223Z,7.22
2024-04-21T00:06:33.191Z,7.95
2024-04-21T00:09:00.074Z,8.50
2024-04-21T00:11:26.981Z,8.38
2024-04-21T00:13:53.900Z,7.53
2024-04-21T00:16:21.130Z,7.63
2024-04-21T00:18:48.081Z,8.15
2024-04-21T00:21:15.213Z,8.88
2024-04-21T00:23:42.300Z,8.07
2024-04-21T00:26:09.199Z,7.93
2024-04-21T00:28:36.112Z,8.98
2024-04-21T00:31:03.135Z,7.82
2024-04-21T00:33:30.312Z,8.10
2024-04-21T00:35:57.256Z,8.60
2024-04-21T00:38:24.135Z,8.48
2024-04-21T00:40:51.052Z,7.80
2024-04-21T00:43:18.052Z,8.15
2024-04-21T00:45:48.546Z,8.32
2024-04-21T00:48:16.288Z,8.43
2024-04-21T00:50:56.510Z,8.15
2024-04-21T00:53:24.812Z,8.93
2024-04-21T00:55:56.084Z,7.80
2024-04-21T00:58:24.425Z,8.82
2024-04-21T01:00:52.034Z,7.95
2024-04-21T01:03:19.520Z,8.05
2024-04-21T01:05:47.217Z,8.35
2024-04-21T01:08:14.755Z,8.20
2024-04-21T01:10:41.699Z,8.93
2024-04-21T01:13:14.846Z,8.43
2024-04-21T01:15:41.862Z,9.33
2024-04-21T01:21:03.560Z,8.55
2024-04-21T01:23:30.584Z,7.88
2024-04-21T01:25:57.706Z,7.97
2024-04-21T01:28:24.977Z,7.72
2024-04-21T01:30:51.880Z,7.70
2024-04-21T01:33:18.862Z,8.13
2024-04-21T01:35:47.666Z,8.43
2024-04-21T01:38:14.503Z,8.82
2024-04-21T01:40:41.604Z,8.32
2024-04-21T01:43:08.589Z,7.43
2024-04-21T01:45:35.929Z,7.93
2024-04-21T01:48:03.868Z,8.55
2024-04-21T01:50:30.865Z,8.13
2024-04-21T01:52:57.780Z,8.68
2024-04-21T01:55:24.755Z,7.55
2024-04-21T01:57:54.267Z,7.95
2024-04-21T02:00:21.359Z,7.22
2024-04-21T02:02:48.251Z,8.05
2024-04-21T02:05:16.016Z,7.80
2024-04-21T02:07:42.905Z,7.57
2024-04-21T02:10:10.090Z,7.43
2024-04-21T02:12:37.052Z,7.20
2024-04-21T02:15:05.030Z,7.53
2024-04-21T02:17:32.025Z,8.07
2024-04-21T02:19:58.893Z,7.50
2024-04-21T02:22:26.094Z,9.18
2024-04-21T02:24:53.105Z,8.98
2024-04-21T02:27:20.072Z,9.07
2024-04-21T02:29:47.116Z,7.97
2024-04-21T02:32:14.110Z,9.55
2024-04-21T02:34:41.002Z,7.75
2024-04-21T02:37:08.131Z,8.45
2024-04-21T02:39:35.121Z,8.30
2024-04-21T02:42:02.074Z,8.32
2024-04-21T02:44:29.032Z,9.32
2024-04-21T02:46:56.162Z,8.05
2024-04-21T02:49:23.182Z,8.25
2024-04-21T02:51:50.143Z,8.77
2024-04-21T02:54:17.301Z,8.55
2024-04-21T02:56:44.205Z,8.48
2024-04-21T02:59:11.065Z,7.88
2024-04-21T03:01:38.207Z,7.72
2024-04-21T03:04:05.402Z,8.82
2024-04-21T03:06:32.399Z,8.40
2024-04-21T03:08:59.434Z,8.45
2024-04-21T03:11:26.665Z,8.90
2024-04-21T03:13:53.711Z,7.80
2024-04-21T03:16:20.786Z,8.27
2024-04-21T03:18:47.813Z,9.73
2024-04-21T03:21:14.942Z,9.60
2024-04-21T03:23:41.800Z,9.52
2024-04-21T03:26:08.792Z,8.27
2024-04-21T03:28:35.828Z,8.07
2024-04-21T03:31:02.849Z,9.10
2024-04-21T03:33:30.021Z,8.10
2024-04-21T03:36:09.916Z,8.50
2024-04-21T03:38:38.346Z,7.85
2024-04-21T03:41:06.308Z,8.63
2024-04-21T03:43:33.350Z,7.78
2024-04-21T03:46:00.352Z,7.65
2024-04-21T03:48:27.504Z,7.97
2024-04-21T03:50:54.720Z,9.45
2024-04-21T03:53:23.219Z,8.80
2024-04-21T03:55:50.611Z,8.75
2024-04-21T03:58:17.775Z,8.48
2024-04-21T04:00:48.967Z,8.18
2024-04-21T04:03:16.969Z,8.13
2024-04-21T04:05:47.618Z,7.85
2024-04-21T04:08:14.535Z,8.13
2024-04-21T04:10:43.646Z,8.85
2024-04-21T04:13:10.986Z,10.20
2024-04-21T04:15:38.690Z,10.18
2024-04-21T04:18:05.764Z,9.75
2024-04-21T04:20:35.164Z,10.43
2024-04-21T04:23:03.497Z,10.70
2024-04-21T04:25:30.392Z,9.75
2024-04-21T04:27:57.801Z,9.40
2024-04-21T04:30:24.756Z,10.23
2024-04-21T04:32:51.697Z,10.15
2024-04-21T04:35:18.690Z,10.15
2024-04-21T04:37:45.664Z,10.07
2024-04-21T04:40:12.960Z,10.55
2024-04-21T04:42:39.907Z,9.70
2024-04-21T04:45:07.272Z,9.65
2024-04-21T04:47:34.267Z,9.23
2024-04-21T04:50:01.286Z,10.07
2024-04-21T04:52:28.226Z,9.70
2024-04-21T04:54:55.207Z,10.13
2024-04-21T04:57:22.867Z,9.70
2024-04-21T04:59:49.765Z,9.90
2024-04-21T05:02:16.676Z,10.23
2024-04-21T05:04:43.945Z,10.32
2024-04-21T05:07:14.191Z,10.48
2024-04-21T05:09:41.614Z,9.80
2024-04-21T05:12:08.820Z,8.88
2024-04-21T05:14:35.705Z,9.63
2024-04-21T05:17:03.077Z,9.93
2024-04-21T05:19:30.081Z,12.57
2024-04-21T05:21:57.300Z,13.63
2024-04-21T05:24:24.221Z,12.38
2024-04-21T05:26:51.325Z,13.05
2024-04-21T05:29:18.232Z,11.20
2024-04-21T05:31:45.187Z,11.98
2024-04-21T05:34:13.447Z,11.95
2024-04-21T05:36:40.355Z,12.68
2024-04-21T05:39:07.494Z,12.80
2024-04-21T05:41:34.458Z,13.98
2024-04-21T05:44:02.039Z,13.75
2024-04-21T05:46:28.911Z,14.40
2024-04-21T05:48:55.887Z,14.45
2024-04-21T05:51:22.851Z,16.05
2024-04-21T05:53:49.726Z,18.08
2024-04-21T05:56:17.550Z,19.00
2024-04-21T05:58:44.486Z,18.15
2024-04-21T06:01:11.599Z,18.50
2024-04-21T06:03:38.894Z,18.13
2024-04-21T06:06:07.883Z,18.67
2024-04-21T06:08:35.397Z,17.75
2024-04-21T06:11:02.611Z,15.68
2024-04-21T06:13:29.786Z,15.07
2024-04-21T06:15:56.746Z,12.38
2024-04-21T06:18:23.953Z,10.02
2024-04-21T06:20:50.983Z,9.18
2024-04-21T06:23:19.280Z,12.23
2024-04-21T06:25:46.147Z,11.63
2024-04-21T06:28:13.230Z,12.35
2024-04-21T06:30:42.347Z,11.57
2024-04-21T06:33:09.603Z,11.20
2024-04-21T06:35:36.566Z,11.18
2024-04-21T06:38:03.708Z,11.65
2024-04-21T06:40:31.460Z,10.48
2024-04-21T06:42:58.637Z,11.48
2024-04-21T06:45:25.593Z,11.10
2024-04-21T06:47:52.648Z,10.88
2024-04-21T06:50:19.651Z,11.18
2024-04-21T06:52:46.617Z,10.73
2024-04-21T06:55:13.520Z,10.27
2024-04-21T06:57:42.369Z,10.95
2024-04-21T07:00:09.815Z,10.60
2024-04-21T07:02:36.863Z,10.07
2024-04-21T07:05:04.782Z,9.63
2024-04-21T07:07:31.715Z,9.88
2024-04-21T07:09:58.863Z,9.00
2024-04-21T07:12:25.836Z,10.07
2024-04-21T07:14:52.767Z,9.32
2024-04-21T07:17:19.652Z,8.48
2024-04-21T07:19:46.587Z,8.75
2024-04-21T07:22:13.619Z,8.55
2024-04-21T07:24:40.697Z,8.88
2024-04-21T07:27:07.578Z,8.52
2024-04-21T07:29:34.599Z,8.70
2024-04-21T07:32:02.157Z,8.75
2024-04-21T07:34:29.746Z,8.20
2024-04-21T07:36:56.776Z,8.52
2024-04-21T07:39:23.905Z,8.18
2024-04-21T07:41:50.834Z,7.80
2024-04-21T07:44:17.798Z,7.93
2024-04-21T07:46:44.704Z,6.82
2024-04-21T07:49:11.894Z,8.23
2024-04-21T07:51:38.936Z,7.43
2024-04-21T07:54:07.897Z,7.93
2024-04-21T07:56:34.802Z,7.35
2024-04-21T07:59:01.788Z,5.93
2024-04-21T08:01:28.939Z,5.95
2024-04-21T08:03:55.876Z,5.10
2024-04-21T08:06:23.636Z,5.40
2024-04-21T08:08:57.328Z,5.68
2024-04-21T08:11:27.919Z,5.53
2024-04-21T08:13:55.007Z,5.10
2024-04-21T08:16:21.942Z,6.10
2024-04-21T08:18:49.148Z,5.53
2024-04-21T08:21:19.218Z,5.63
2024-04-21T08:23:46.138Z,5.35
2024-04-21T08:26:12.987Z,6.68
2024-04-21T08:28:39.927Z,5.30
2024-04-21T08:31:06.894Z,5.85
2024-04-21T08:33:33.880Z,5.80
2024-04-21T08:36:00.907Z,6.45
2024-04-21T08:38:29.567Z,5.72
2024-04-21T08:40:57.437Z,5.50
2024-04-21T08:43:26.208Z,7.50
2024-04-21T08:45:57.325Z,6.38
2024-04-21T08:48:27.150Z,7.20
2024-04-21T08:50:54.382Z,6.63
2024-04-21T08:53:21.414Z,11.80
2024-04-21T08:55:50.330Z,6.57
2024-04-21T08:58:18.342Z,6.20
2024-04-21T09:00:47.006Z,6.88
2024-04-21T09:03:17.808Z,6.30
2024-04-21T09:05:51.107Z,7.78
2024-04-21T09:08:18.082Z,6.43
2024-04-21T09:10:45.114Z,7.63
2024-04-21T09:13:12.304Z,6.55
2024-04-21T09:15:40.216Z,5.75
2024-04-21T09:18:08.275Z,8.68
2024-04-21T09:20:38.323Z,6.75
2024-04-21T09:23:08.533Z,6.68
2024-04-21T09:25:37.597Z,4.18
2024-04-21T09:28:05.546Z,3.95
2024-04-21T09:30:32.552Z,3.90
2024-04-21T09:33:00.043Z,4.15
2024-04-21T09:35:27.229Z,4.00
2024-04-21T09:37:54.812Z,3.45
2024-04-21T09:40:23.357Z,3.53
2024-04-21T09:42:51.400Z,3.13
2024-04-21T09:45:21.822Z,3.45
2024-04-21T09:47:49.614Z,2.80
2024-04-21T09:50:17.557Z,3.28
2024-04-21T09:52:48.660Z,3.20
2024-04-21T09:55:16.157Z,2.83
2024-04-21T09:57:44.990Z,2.17
2024-04-21T10:00:16.669Z,2.60
2024-04-21T10:02:48.742Z,2.63
2024-04-21T10:05:20.024Z,2.70
2024-04-21T10:07:51.478Z,2.72
2024-04-21T10:10:23.704Z,1.98
2024-04-21T10:12:51.298Z,2.42
2024-04-21T10:15:25.246Z,2.30
2024-04-21T10:17:56.538Z,2.85
2024-04-21T10:20:37.742Z,2.03
2024-04-21T10:23:11.151Z,2.40
2024-04-21T10:25:40.485Z,2.10
2024-04-21T10:28:08.218Z,2.10
2024-04-21T10:30:37.178Z,2.30
2024-04-21T10:33:15.238Z,2.00
2024-04-21T10:35:43.577Z,1.70
2024-04-21T10:38:16.463Z,1.90
2024-04-21T10:40:48.772Z,1.80
2024-04-21T10:43:17.328Z,2.15
2024-04-21T10:45:47.016Z,2.05
2024-04-21T10:48:14.065Z,2.10
2024-04-21T10:50:43.141Z,2.15
2024-04-21T10:53:10.549Z,2.28
2024-04-21T10:55:37.653Z,2.20
2024-04-21T10:58:05.594Z,2.38
2024-04-21T11:00:34.483Z,1.83
2024-04-21T11:03:01.750Z,1.80
2024-04-21T11:05:57.431Z,1.92
2024-04-21T11:08:25.139Z,2.00
2024-04-21T11:10:54.648Z,2.05
2024-04-21T11:13:22.746Z,1.95
2024-04-21T11:15:50.149Z,1.98
2024-04-21T11:18:17.904Z,1.90
2024-04-21T11:20:46.165Z,1.80
2024-04-21T11:23:17.797Z,2.17
2024-04-21T11:25:48.136Z,2.20
2024-04-21T11:28:17.910Z,2.10
2024-04-21T11:30:44.956Z,1.65
2024-04-21T11:33:12.262Z,1.80
2024-04-21T11:35:40.085Z,2.00
2024-04-21T11:38:07.610Z,2.17
2024-04-21T11:40:41.139Z,1.95
2024-04-21T11:43:11.448Z,1.85
2024-04-21T11:45:40.561Z,2.00
2024-04-21T11:48:09.119Z,1.75
2024-04-21T11:50:39.127Z,2.05
2024-04-21T11:53:06.642Z,1.90
2024-04-21T11:55:34.083Z,2.03
2024-04-21T11:58:01.488Z,1.65
2024-04-21T12:00:28.511Z,1.98
2024-04-21T12:02:55.570Z,1.65
2024-04-21T12:05:23.719Z,1.83
2024-04-21T12:07:51.175Z,1.70
2024-04-21T12:10:18.203Z,1.38
2024-04-21T12:12:45.205Z,1.85
2024-04-21T12:15:12.129Z,1.60
2024-04-21T12:17:39.205Z,1.83
2024-04-21T12:20:07.054Z,1.70
2024-04-21T12:22:34.022Z,2.15
2024-04-21T12:25:01.205Z,1.50
2024-04-21T12:27:28.093Z,1.52
2024-04-21T12:29:55.184Z,1.60
2024-04-21T12:32:22.333Z,1.67
2024-04-21T12:34:49.341Z,1.50
2024-04-21T12:37:16.529Z,1.50
2024-04-21T12:39:43.759Z,1.50
2024-04-21T12:42:10.918Z,1.40
2024-04-21T12:44:37.850Z,1.50
2024-04-21T12:47:05.106Z,1.50
2024-04-21T12:49:32.062Z,1.20
2024-04-21T12:51:59.120Z,1.42
2024-04-21T12:54:26.374Z,1.50
2024-04-21T12:56:53.285Z,1.42
2024-04-21T12:59:22.491Z,1.15
2024-04-21T13:01:49.726Z,1.65
2024-04-21T13:04:16.882Z,1.27
2024-04-21T13:06:43.770Z,1.35
2024-04-21T13:09:11.245Z,1.30
2024-04-21T13:11:38.314Z,1.17
2024-04-21T13:14:05.208Z,1.55
2024-04-21T13:16:32.702Z,1.50
2024-04-21T13:18:59.744Z,1.63
2024-04-21T13:21:27.398Z,2.38
2024-04-21T13:23:54.671Z,10.35
2024-04-21T13:26:21.958Z,1.80
2024-04-21T13:28:49.103Z,1.75
2024-04-21T13:31:16.105Z,1.45
2024-04-21T13:33:43.107Z,1.50
2024-04-21T13:36:15.150Z,1.40
2024-04-21T13:38:47.674Z,1.30
2024-04-21T13:41:14.619Z,1.40
2024-04-21T13:43:41.822Z,1.48
2024-04-21T13:46:08.824Z,1.38
2024-04-21T13:48:36.673Z,1.23
2024-04-21T13:51:16.925Z,1.42
2024-04-21T13:53:51.635Z,1.20
2024-04-21T13:56:18.541Z,1.20
2024-04-21T13:58:45.561Z,1.50
2024-04-21T14:01:12.824Z,1.30
2024-04-21T14:03:39.750Z,1.30
2024-04-21T14:06:07.013Z,1.50
2024-04-21T14:08:34.005Z,1.25
2024-04-21T14:11:01.104Z,1.60
2024-04-21T14:13:29.167Z,1.67
2024-04-21T14:15:56.256Z,1.58
2024-04-21T14:18:23.801Z,1.00
2024-04-21T14:20:51.111Z,1.42
2024-04-21T14:23:18.181Z,1.30
2024-04-21T14:25:45.178Z,1.38
2024-04-21T14:28:12.384Z,1.40
2024-04-21T14:30:39.315Z,1.73
2024-04-21T14:33:06.634Z,1.30
2024-04-21T14:35:33.581Z,1.60
2024-04-21T14:38:00.543Z,1.67
2024-04-21T14:40:27.437Z,1.30
2024-04-21T14:42:54.361Z,1.30
2024-04-21T14:45:21.517Z,1.25
2024-04-21T14:47:55.808Z,1.45
2024-04-21T14:50:23.140Z,1.80
2024-04-21T14:52:50.354Z,1.90
2024-04-21T14:55:17.489Z,1.60
2024-04-21T14:57:47.729Z,1.50
2024-04-21T15:00:15.485Z,1.52
2024-04-21T15:02:42.755Z,1.50
2024-04-21T15:05:09.814Z,1.42
2024-04-21T15:07:37.559Z,1.33
2024-04-21T15:10:07.625Z,28.77
2024-04-21T15:12:34.642Z,11.63
2024-04-21T15:15:01.686Z,4.63
2024-04-21T15:17:28.564Z,5.75
2024-04-21T15:19:56.133Z,6.97
2024-04-21T15:22:25.818Z,19.00
2024-04-21T15:24:54.533Z,1.50
2024-04-21T15:27:21.503Z,2.72
2024-04-21T15:29:48.506Z,1.70
2024-04-21T15:32:15.367Z,12.73
2024-04-21T15:34:42.907Z,48.85
2024-04-21T15:37:09.866Z,42.65
2024-04-21T15:39:36.919Z,66.95
2024-04-21T15:42:06.433Z,71.38
2024-04-21T15:44:33.385Z,36.80
2024-04-21T15:47:00.378Z,8.60
2024-04-21T15:49:27.529Z,2.92
2024-04-21T15:51:55.542Z,1.90
2024-04-21T15:54:22.698Z,2.13
2024-04-21T15:56:49.808Z,1.80
2024-04-21T15:59:16.780Z,1.75
2024-04-21T16:01:43.861Z,1.42
2024-04-21T16:04:11.098Z,1.50
2024-04-21T16:06:38.133Z,1.30
2024-04-21T16:09:06.720Z,1.92
2024-04-21T16:11:33.825Z,1.52
2024-04-21T16:14:00.785Z,1.60
2024-04-21T16:16:28.724Z,1.70
2024-04-21T16:18:55.728Z,1.50
2024-04-21T16:21:22.978Z,1.30
2024-04-21T16:23:49.934Z,1.50
2024-04-21T16:26:18.100Z,1.90
2024-04-21T16:28:45.410Z,1.60
2024-04-21T16:31:13.085Z,1.50
2024-04-21T16:33:40.426Z,1.55
2024-04-21T16:36:08.546Z,1.40
2024-04-21T16:38:38.493Z,1.30
2024-04-21T16:41:05.786Z,1.58
2024-04-21T16:43:35.111Z,1.40
2024-04-21T16:46:06.947Z,1.38
2024-04-21T16:48:34.374Z,1.42
2024-04-21T16:51:01.791Z,1.70
2024-04-21T16:53:29.249Z,1.50
2024-04-21T16:55:57.164Z,2.08
2024-04-21T16:58:32.735Z,1.75
2024-04-21T17:01:02.908Z,1.75
2024-04-21T17:03:33.831Z,1.98
2024-04-21T17:06:03.012Z,1.65
2024-04-21T17:08:39.295Z,2.00
2024-04-21T17:11:06.589Z,2.20
2024-04-21T17:13:34.427Z,2.30
2024-04-21T17:16:02.799Z,3.00
2024-04-21T17:18:30.808Z,3.45
2024-04-21T17:20:57.715Z,3.15
2024-04-21T17:23:24.658Z,3.67
2024-04-21T17:25:51.538Z,4.40
2024-04-21T17:28:18.470Z,4.53
2024-04-21T17:30:45.515Z,4.47
2024-04-21T17:33:12.649Z,7.25
2024-04-21T17:35:39.722Z,8.07
2024-04-21T17:38:06.764Z,14.05
2024-04-21T17:40:33.932Z,15.57
2024-04-21T17:43:00.917Z,17.27
2024-04-21T17:45:31.422Z,15.23
2024-04-21T17:47:59.993Z,16.77
2024-04-21T17:50:27.145Z,21.52
2024-04-21T17:52:54.594Z,9.63
2024-04-21T17:55:21.487Z,8.02
2024-04-21T17:57:48.408Z,7.95
2024-04-21T18:00:15.466Z,8.27
2024-04-21T18:02:42.514Z,5.82
2024-04-21T18:05:10.403Z,5.88
2024-04-21T18:07:39.188Z,6.45
2024-04-21T18:10:08.482Z,4.45
2024-04-21T18:12:35.619Z,3.80
2024-04-21T18:15:04.573Z,3.90
2024-04-21T18:17:31.659Z,3.63
2024-04-21T18:19:58.693Z,3.35
2024-04-21T18:22:25.721Z,3.65
2024-04-21T18:24:52.642Z,4.70
2024-04-21T18:27:19.688Z,4.78
2024-04-21T18:29:46.591Z,4.70
2024-04-21T18:32:13.955Z,5.20
2024-04-21T18:34:41.450Z,5.18
2024-04-21T18:37:08.331Z,4.47
2024-04-21T18:39:35.248Z,5.03
2024-04-21T18:42:03.280Z,4.57
2024-04-21T18:44:30.567Z,4.90
2024-04-21T18:46:57.919Z,5.03
2024-04-21T18:49:25.932Z,5.13
2024-04-21T18:51:52.970Z,5.47
2024-04-21T18:54:22.369Z,5.63
2024-04-21T18:56:49.488Z,6.22
2024-04-21T18:59:16.413Z,5.43
2024-04-21T19:01:43.622Z,5.35
2024-04-21T19:04:10.616Z,6.05
2024-04-21T19:06:37.746Z,6.72
2024-04-21T19:09:04.916Z,8.07
2024-04-21T19:11:33.132Z,7.82
2024-04-21T19:14:00.288Z,9.02
2024-04-21T19:16:31.440Z,7.90
2024-04-21T19:18:58.920Z,9.13
2024-04-21T19:21:26.156Z,8.18
2024-04-21T19:23:53.395Z,10.02
2024-04-21T19:26:20.354Z,8.88
2024-04-21T19:28:48.777Z,7.75
2024-04-21T19:31:16.630Z,8.57
2024-04-21T19:33:44.420Z,7.65
2024-04-21T19:36:11.283Z,7.80
2024-04-21T19:38:38.179Z,7.53
2024-04-21T19:41:05.075Z,8.60
2024-04-21T19:43:32.132Z,8.55
2024-04-21T19:46:02.552Z,9.57
2024-04-21T19:48:29.618Z,10.10
2024-04-21T19:51:00.595Z,11.48
2024-04-21T19:53:28.227Z,10.85
2024-04-21T19:55:55.394Z,12.80
2024-04-21T19:58:22.341Z,9.07
2024-04-21T20:00:52.363Z,7.80
2024-04-21T20:03:19.407Z,8.57
2024-04-21T20:05:46.352Z,7.10
2024-04-21T20:08:17.638Z,6.93
2024-04-21T20:10:44.743Z,6.00
2024-04-21T20:13:11.964Z,5.05
2024-04-21T20:15:57.329Z,4.40
2024-04-21T20:18:36.570Z,4.65
2024-04-21T20:21:05.130Z,4.13
2024-04-21T20:23:32.727Z,5.05
2024-04-21T20:26:04.743Z,4.32
2024-04-21T20:28:31.917Z,3.70
2024-04-21T20:30:58.857Z,4.20
2024-04-21T20:33:26.426Z,4.55
2024-04-21T20:35:53.503Z,4.68
2024-04-21T20:38:20.430Z,4.47
2024-04-21T20:40:48.503Z,3.95
2024-04-21T20:43:15.514Z,4.30
2024-04-21T20:45:42.449Z,4.47
2024-04-21T20:48:09.514Z,4.47
2024-04-21T20:50:36.646Z,4.35
2024-04-21T20:53:03.837Z,5.70
2024-04-21T20:55:30.830Z,5.95
2024-04-21T20:57:57.871Z,6.45
2024-04-21T21:00:25.006Z,6.30
2024-04-21T21:02:52.120Z,6.35
2024-04-21T21:05:19.117Z,7.00
2024-04-21T21:07:46.043Z,7.47
2024-04-21T21:10:13.144Z,5.85
2024-04-21T21:12:40.007Z,6.70
2024-04-21T21:15:07.598Z,5.60
2024-04-21T21:17:37.774Z,5.53
2024-04-21T21:20:05.823Z,7.35
2024-04-21T21:22:32.758Z,6.05
2024-04-21T21:24:59.707Z,5.75
2024-04-21T21:27:26.700Z,5.07
2024-04-21T21:29:53.883Z,4.88
2024-04-21T21:32:20.925Z,3.97
2024-04-21T21:34:47.871Z,4.72
2024-04-21T21:37:15.069Z,4.32
2024-04-21T21:39:42.115Z,5.05
2024-04-21T21:42:09.250Z,4.80
2024-04-21T21:44:36.467Z,5.00
2024-04-21T21:47:03.370Z,4.50
2024-04-21T21:49:30.329Z,7.72
2024-04-21T21:51:57.650Z,8.93
2024-04-21T21:54:27.395Z,7.88
2024-04-21T21:56:54.507Z,8.88
2024-04-21T21:59:25.149Z,8.95
2024-04-21T22:01:52.386Z,9.68
2024-04-21T22:04:19.328Z,9.98
2024-04-21T22:06:47.271Z,9.73
2024-04-21T22:09:14.244Z,9.23
2024-04-21T22:11:41.145Z,7.70
2024-04-21T22:14:10.081Z,6.80
2024-04-21T22:16:37.365Z,8.60
2024-04-21T22:19:04.477Z,7.45
2024-04-21T22:21:31.389Z,8.18
2024-04-21T22:23:58.246Z,7.30
2024-04-21T22:26:25.521Z,5.72
2024-04-21T22:28:52.443Z,5.72
2024-04-21T22:31:20.130Z,5.75
2024-04-21T22:33:47.407Z,6.60
2024-04-21T22:36:14.401Z,6.45
2024-04-21T22:38:41.496Z,6.75
2024-04-21T22:41:08.472Z,7.25
2024-04-21T22:43:36.100Z,7.57
2024-04-21T22:46:08.027Z,7.22
2024-04-21T22:48:37.062Z,7.82
2024-04-21T22:51:05.894Z,7.82
2024-04-21T22:53:33.040Z,7.75
2024-04-21T22:56:00.240Z,7.93
2024-04-21T22:58:27.470Z,7.57
2024-04-21T23:00:54.636Z,6.78
2024-04-21T23:03:21.748Z,6.78
2024-04-21T23:05:48.784Z,5.82
2024-04-21T23:08:15.888Z,6.20
2024-04-21T23:10:43.049Z,7.15
2024-04-21T23:13:10.472Z,6.60
2024-04-21T23:15:37.482Z,6.70
2024-04-21T23:18:04.989Z,6.53
2024-04-21T23:20:33.492Z,6.60
2024-04-21T23:23:01.661Z,6.88
2024-04-21T23:25:28.591Z,6.72
2024-04-21T23:27:55.622Z,6.22
2024-04-21T23:30:22.755Z,6.50
2024-04-21T23:32:49.881Z,6.63
2024-04-21T23:35:16.941Z,6.32
2024-04-21T23:37:44.129Z,6.07
2024-04-21T23:40:11.198Z,6.05
2024-04-21T23:42:38.217Z,6.00
2024-04-21T23:45:09.251Z,6.47
2024-04-21T23:47:36.768Z,5.40
2024-04-21T23:50:07.713Z,5.40
2024-04-21T23:52:34.606Z,5.68
2024-04-21T23:55:01.545Z,5.25
2024-04-21T23:57:28.430Z,4.93
2024-04-21T23:59:55.720Z,5.57
